Time;durP1;ratioP1;P1;durP2;ratioP2;P2;SDS_P1;SDS_P2;PMS_P1;PMS_P2;Temp;Humidity;BMP_temperature;BMP_pressure;BME280_temperature;BME280_humidity;BME280_pressure;Samples;Min_cycle;Max_cycle;Signal;HPM_P1;HPM_P2
2023/03/11 00:00:57;;;;;;;5.40;3.60;;;;;;;11.55;94.55;93058.25;5016286;28;20859;-75
2023/03/11 00:03:23;;;;;;;4.53;2.73;;;;;;;11.52;93.61;93061.41;5016972;28;20441;-75
2023/03/11 00:05:49;;;;;;;2.08;1.83;;;;;;;11.54;93.28;93087.50;5009779;28;20444;-76
2023/03/11 00:08:17;;;;;;;5.70;3.00;;;;;;;11.31;93.44;93043.97;5013627;28;20263;-76
2023/03/11 00:10:44;;;;;;;5.22;2.05;;;;;;;11.08;93.83;93025.97;5009220;28;20509;-76
2023/03/11 00:13:13;;;;;;;2.60;1.70;;;;;;;11.30;94.55;93072.16;5011753;28;20422;-76
2023/03/11 00:15:41;;;;;;;3.20;1.58;;;;;;;11.19;95.24;93070.53;5010032;28;20434;-76
2023/03/11 00:18:06;;;;;;;3.20;1.33;;;;;;;11.13;95.14;93060.25;5010844;28;20481;-76
2023/03/11 00:20:35;;;;;;;5.13;1.40;;;;;;;10.99;95.13;93025.69;5012185;28;20698;-76
2023/03/11 00:23:02;;;;;;;3.07;1.50;;;;;;;11.17;94.93;93056.81;5010958;28;20258;-76
2023/03/11 00:25:33;;;;;;;4.60;1.30;;;;;;;11.13;94.70;93060.25;5013415;28;20415;-76
2023/03/11 00:27:59;;;;;;;2.17;1.20;;;;;;;11.11;95.00;93049.97;5012243;28;20488;-76
2023/03/11 00:30:25;;;;;;;5.50;1.30;;;;;;;10.94;94.56;93028.31;5012914;28;20826;-75
2023/03/11 00:32:52;;;;;;;1.87;1.10;;;;;;;10.98;95.06;93045.19;4994905;28;20173;-76
2023/03/11 00:35:22;;;;;;;3.40;2.03;;;;;;;11.01;95.51;93028.06;5014031;28;20861;-76
2023/03/11 00:37:47;;;;;;;2.35;1.20;;;;;;;10.95;94.51;93033.34;5013284;28;20430;-76
2023/03/11 00:40:15;;;;;;;2.07;1.13;;;;;;;10.78;94.40;93029.31;5009501;28;20184;-76
2023/03/11 00:42:41;;;;;;;2.47;1.20;;;;;;;10.54;95.55;93024.47;5010768;28;20473;-75
2023/03/11 00:45:07;;;;;;;2.20;1.38;;;;;;;10.48;96.66;93030.72;5011309;28;20465;-75
2023/03/11 00:47:32;;;;;;;3.33;1.50;;;;;;;10.50;96.56;93030.47;5012131;28;20430;-75
2023/03/11 00:49:58;;;;;;;2.67;1.73;;;;;;;10.58;96.66;93025.53;5008531;28;20436;-76
2023/03/11 00:52:23;;;;;;;1.27;1.17;;;;;;;10.76;96.32;93015.63;5011871;28;20511;-76
2023/03/11 00:54:48;;;;;;;1.10;1.00;;;;;;;10.80;96.48;93003.53;5009017;28;20652;-76
2023/03/11 00:57:14;;;;;;;1.67;1.20;;;;;;;10.95;96.02;92995.69;5009623;28;20636;-76
2023/03/11 00:59:39;;;;;;;2.53;1.40;;;;;;;10.72;95.99;92959.31;5011895;28;20415;-75
2023/03/11 01:02:05;;;;;;;1.77;1.50;;;;;;;10.94;95.20;92983.56;5012651;28;20547;-75
2023/03/11 01:04:30;;;;;;;1.93;1.60;;;;;;;10.72;94.82;92949.56;5007036;28;20212;-76
2023/03/11 01:06:56;;;;;;;1.47;1.30;;;;;;;10.81;94.73;92970.91;5011219;28;20266;-75
2023/03/11 01:09:21;;;;;;;1.43;1.30;;;;;;;10.86;95.30;92986.69;5012576;28;20538;-75
2023/03/11 01:11:46;;;;;;;1.87;1.33;;;;;;;10.90;95.70;92985.91;5009991;28;20882;-76
2023/03/11 01:14:12;;;;;;;1.60;1.47;;;;;;;10.94;95.86;92989.63;5010766;28;20259;-76
2023/03/11 01:16:37;;;;;;;1.57;1.20;;;;;;;10.95;95.69;92987.78;5012193;28;20176;-76
2023/03/11 01:19:03;;;;;;;1.93;1.63;;;;;;;10.82;95.77;92954.03;5012632;28;20176;-76
2023/03/11 01:21:28;;;;;;;3.17;1.60;;;;;;;10.85;95.34;92956.16;5012482;28;20794;-75
2023/03/11 01:23:54;;;;;;;3.17;1.50;;;;;;;10.80;95.01;92941.16;5007140;28;20711;-75
2023/03/11 01:26:19;;;;;;;2.50;1.60;;;;;;;10.93;95.34;92947.75;5011783;28;20235;-75
2023/03/11 01:28:44;;;;;;;3.33;1.90;;;;;;;10.92;95.86;92922.50;5008479;28;20288;-76
2023/03/11 01:31:10;;;;;;;2.43;1.73;;;;;;;10.87;95.27;92904.84;5007982;28;20172;-75
2023/03/11 01:33:35;;;;;;;7.83;1.77;;;;;;;10.90;95.76;92914.84;5006425;28;20295;-75
2023/03/11 01:36:01;;;;;;;2.33;1.40;;;;;;;10.81;95.98;92900.63;5007204;28;20242;-76
2023/03/11 01:38:27;;;;;;;3.27;1.30;;;;;;;10.88;95.81;92916.97;5010637;28;20181;-76
2023/03/11 01:40:52;;;;;;;11.57;1.80;;;;;;;10.80;95.84;92904.31;5011680;28;20180;-76
2023/03/11 01:43:37;;;;;;;1.60;1.27;;;;;;;10.85;95.78;92927.22;5008258;28;20207;-76
2023/03/11 01:46:23;;;;;;;2.10;1.30;;;;;;;10.85;95.23;92914.84;5007523;28;21196;-75
2023/03/11 01:48:51;;;;;;;1.33;1.10;;;;;;;10.84;95.32;92921.16;5008272;28;21011;-75
2023/03/11 01:51:27;;;;;;;1.13;1.00;;;;;;;10.75;95.22;92906.13;5005618;28;20176;-75
2023/03/11 01:53:54;;;;;;;1.25;1.02;;;;;;;10.70;95.47;92935.88;5004143;28;20426;-75
2023/03/11 01:56:20;;;;;;;1.20;1.07;;;;;;;10.78;95.53;92966.94;5007748;28;20176;-76
2023/03/11 01:58:50;;;;;;;1.60;1.20;;;;;;;10.47;96.37;92925.78;5011650;28;20176;-76
2023/03/11 02:01:17;;;;;;;1.80;1.10;;;;;;;10.58;95.58;92922.94;5012375;28;20433;-76
2023/03/11 02:03:43;;;;;;;1.33;1.20;;;;;;;10.77;95.35;92936.41;5011719;28;20442;-77
2023/03/11 02:06:13;;;;;;;1.60;1.23;;;;;;;10.83;95.21;92945.91;5013169;28;20254;-77
2023/03/11 02:08:41;;;;;;;2.28;1.30;;;;;;;10.87;95.18;92941.72;5012251;28;21060;-76
2023/03/11 02:11:10;;;;;;;1.40;1.20;;;;;;;10.77;94.98;92956.66;5004034;28;20669;-76
2023/03/11 02:13:38;;;;;;;2.35;1.50;;;;;;;10.74;95.56;92936.91;5010419;28;20488;-77
2023/03/11 02:16:04;;;;;;;4.17;2.20;;;;;;;10.79;95.13;92957.22;5012813;28;20263;-77
2023/03/11 02:18:30;;;;;;;3.47;2.40;;;;;;;10.81;94.79;92963.00;5012665;28;20172;-77
2023/03/11 02:21:15;;;;;;;2.00;1.80;;;;;;;10.81;94.72;92969.03;5012797;28;20178;-77
2023/03/11 02:23:58;;;;;;;2.50;1.90;;;;;;;10.75;94.74;92964.03;5012924;28;20197;-77
2023/03/11 02:26:51;;;;;;;3.43;1.70;;;;;;;10.89;94.02;92981.72;5005638;28;20671;-77
2023/03/11 02:29:19;;;;;;;2.67;1.92;;;;;;;10.74;94.07;92971.13;5010348;28;20429;-76
2023/03/11 02:31:45;;;;;;;1.77;1.40;;;;;;;10.82;93.31;92980.38;5012215;28;20191;-76
2023/03/11 02:34:20;;;;;;;2.40;1.48;;;;;;;10.54;93.00;92986.84;5011575;28;20410;-77
2023/03/11 02:36:45;;;;;;;2.20;1.33;;;;;;;10.57;94.31;92978.44;5010561;28;20421;-76
2023/03/11 02:39:11;;;;;;;2.75;1.40;;;;;;;10.65;93.72;92980.56;5011101;28;20934;-76
2023/03/11 02:41:40;;;;;;;1.37;1.27;;;;;;;10.76;92.92;92984.03;5012233;28;20554;-77
2023/03/11 02:44:09;;;;;;;2.30;1.70;;;;;;;10.77;92.82;92983.00;5012467;28;20211;-77
2023/03/11 02:46:37;;;;;;;1.20;1.10;;;;;;;10.70;92.30;92971.91;5011777;28;20793;-75
2023/03/11 02:49:05;;;;;;;3.20;1.20;;;;;;;10.79;90.65;92975.63;5010162;28;20509;-75
2023/03/11 02:51:30;;;;;;;4.15;1.02;;;;;;;10.83;88.83;92966.94;5010967;28;20803;-75
2023/03/11 02:54:00;;;;;;;1.03;0.87;;;;;;;11.05;87.10;92979.13;5010192;28;20411;-75
2023/03/11 02:56:26;;;;;;;3.13;1.45;;;;;;;11.16;86.70;92975.44;5009744;28;20430;-75
2023/03/11 02:58:51;;;;;;;4.10;1.63;;;;;;;11.28;86.64;92973.38;5010153;28;20422;-75
2023/03/11 03:01:17;;;;;;;4.57;2.50;;;;;;;11.34;85.27;92983.66;5010436;28;20414;-75
2023/03/11 03:03:42;;;;;;;3.00;2.10;;;;;;;11.32;84.92;92954.16;5009523;28;20805;-75
2023/03/11 03:06:07;;;;;;;1.30;1.00;;;;;;;11.47;85.12;92978.94;5009960;28;20793;-75
2023/03/11 03:08:33;;;;;;;3.00;0.90;;;;;;;11.58;84.15;92983.97;5010929;28;20406;-75
2023/03/11 03:10:58;;;;;;;0.98;0.98;;;;;;;11.65;84.09;92981.06;5010851;28;20414;-75
2023/03/11 03:13:25;;;;;;;1.27;1.17;;;;;;;11.66;83.67;92990.56;5011118;28;20064;-75
2023/03/11 03:15:51;;;;;;;4.57;2.20;;;;;;;11.54;83.76;92976.81;5010011;28;20399;-75
2023/03/11 03:18:17;;;;;;;2.30;1.23;;;;;;;11.57;83.55;92979.75;5009980;28;20856;-75
2023/03/11 03:20:42;;;;;;;0.93;0.80;;;;;;;11.62;82.64;92979.72;5009137;28;20430;-74
2023/03/11 03:23:08;;;;;;;1.00;0.90;;;;;;;11.56;82.73;92977.38;5009789;28;20453;-75
2023/03/11 03:25:33;;;;;;;0.90;0.90;;;;;;;11.66;83.02;92986.06;5011187;28;20595;-75
2023/03/11 03:27:58;;;;;;;1.60;1.10;;;;;;;11.63;83.28;92989.22;5009617;28;20992;-75
2023/03/11 03:30:24;;;;;;;1.63;0.90;;;;;;;11.50;82.61;92955.47;5010979;28;20521;-75
2023/03/11 03:32:49;;;;;;;0.73;0.73;;;;;;;11.60;81.31;92978.41;5010311;28;20480;-75
2023/03/11 03:35:15;;;;;;;1.30;0.80;;;;;;;11.63;81.44;92972.63;5013951;28;20417;-75
2023/03/11 03:37:40;;;;;;;2.10;1.00;;;;;;;11.64;80.55;92988.16;5013486;28;20422;-75
2023/03/11 03:40:06;;;;;;;0.80;0.80;;;;;;;11.48;79.16;92977.88;5013356;28;20501;-75
2023/03/11 03:42:34;;;;;;;0.77;0.70;;;;;;;11.50;79.48;92986.31;5013525;28;20441;-75
2023/03/11 03:45:00;;;;;;;0.60;0.60;;;;;;;11.48;79.52;92983.16;5014106;28;20433;-75
2023/03/11 03:47:25;;;;;;;0.60;0.60;;;;;;;11.48;79.49;92967.34;5014608;28;20172;-75
2023/03/11 03:49:50;;;;;;;0.70;0.70;;;;;;;11.47;78.25;92971.81;5013387;28;20489;-75
2023/03/11 03:52:16;;;;;;;1.93;0.90;;;;;;;11.51;77.21;92972.06;5014503;28;20200;-75
2023/03/11 03:54:41;;;;;;;0.60;0.60;;;;;;;11.61;76.39;92974.72;5013585;28;20417;-75
2023/03/11 03:57:07;;;;;;;0.67;0.67;;;;;;;11.71;76.41;92972.88;5013314;28;20407;-75
2023/03/11 03:59:33;;;;;;;0.80;0.80;;;;;;;11.78;76.52;92971.84;5014392;28;20195;-75
2023/03/11 04:01:58;;;;;;;1.00;0.90;;;;;;;11.85;77.05;92975.78;5014493;28;20270;-75
2023/03/11 04:04:24;;;;;;;1.17;1.00;;;;;;;11.87;77.36;92978.16;5014610;28;20240;-75
2023/03/11 04:06:49;;;;;;;2.10;1.63;;;;;;;11.78;77.21;92948.91;5013958;28;20901;-75
2023/03/11 04:09:14;;;;;;;3.23;1.40;;;;;;;11.88;77.33;92966.56;5014746;28;20191;-75
2023/03/11 04:11:40;;;;;;;0.97;0.87;;;;;;;11.92;77.19;92973.72;5014403;28;20191;-75
2023/03/11 04:14:05;;;;;;;1.13;1.10;;;;;;;11.91;77.30;92974.75;5014463;28;20180;-75
2023/03/11 04:16:31;;;;;;;1.63;1.20;;;;;;;11.90;76.90;92967.09;5014215;28;20246;-75
2023/03/11 04:18:57;;;;;;;1.27;1.00;;;;;;;11.89;77.01;92984.78;5012869;28;20414;-75
2023/03/11 04:21:22;;;;;;;1.60;1.43;;;;;;;11.76;77.66;92977.41;5014139;28;20173;-75
2023/03/11 04:23:48;;;;;;;1.10;1.00;;;;;;;11.84;78.08;92984.00;5013140;28;20446;-75
2023/03/11 04:26:13;;;;;;;1.30;0.80;;;;;;;11.86;77.08;92985.28;5013175;28;20465;-75
2023/03/11 04:28:39;;;;;;;1.03;0.90;;;;;;;11.95;76.47;92985.53;5013533;28;20441;-75
2023/03/11 04:31:04;;;;;;;0.80;0.70;;;;;;;11.94;75.79;92990.03;5013264;28;20410;-75
2023/03/11 04:33:30;;;;;;;0.80;0.60;;;;;;;11.95;75.42;92988.19;5013144;28;20778;-75
2023/03/11 04:35:55;;;;;;;1.17;0.87;;;;;;;11.91;75.21;92985.31;5013780;28;20414;-75
2023/03/11 04:38:21;;;;;;;0.70;0.70;;;;;;;11.89;75.21;92981.34;5012510;28;20917;-75
2023/03/11 04:40:47;;;;;;;0.80;0.80;;;;;;;11.95;74.64;92981.06;5012053;28;20414;-75
2023/03/11 04:43:12;;;;;;;1.40;1.17;;;;;;;11.92;74.75;92996.63;5012637;28;21044;-75
2023/03/11 04:45:39;;;;;;;1.20;1.10;;;;;;;11.96;74.97;92989.78;5012169;28;20478;-75
2023/03/11 04:48:04;;;;;;;1.45;1.10;;;;;;;12.03;74.64;92987.66;5012098;28;20429;-75
2023/03/11 04:50:29;;;;;;;2.10;1.40;;;;;;;12.02;74.98;92992.13;5012639;28;20402;-75
2023/03/11 04:52:55;;;;;;;1.83;1.20;;;;;;;12.12;75.20;92996.59;5013437;28;20177;-75
2023/03/11 04:55:21;;;;;;;2.92;1.70;;;;;;;12.05;75.19;93001.38;5012706;28;20800;-74
2023/03/11 04:57:46;;;;;;;1.97;1.00;;;;;;;12.09;74.43;92997.16;5013499;28;20180;-75
2023/03/11 05:00:14;;;;;;;1.23;1.10;;;;;;;11.93;75.18;93000.88;5011956;28;20468;-75
2023/03/11 05:02:40;;;;;;;0.70;0.70;;;;;;;11.95;74.52;93004.78;5013354;28;20922;-75
2023/03/11 05:05:08;;;;;;;1.02;0.82;;;;;;;11.94;74.02;92997.94;5011889;28;20484;-75
2023/03/11 05:07:34;;;;;;;0.70;0.70;;;;;;;11.92;73.20;93001.91;5012036;28;20476;-75
2023/03/11 05:10:00;;;;;;;0.70;0.70;;;;;;;11.98;73.54;93017.47;5012377;28;20435;-75
2023/03/11 05:12:25;;;;;;;0.90;0.77;;;;;;;11.95;74.61;93017.19;5011656;28;20521;-75
2023/03/11 05:14:51;;;;;;;0.87;0.70;;;;;;;12.02;74.13;93033.56;5012226;28;20902;-75
2023/03/11 05:17:18;;;;;;;1.10;1.00;;;;;;;12.07;74.37;93029.06;5011711;28;20425;-75
2023/03/11 05:19:44;;;;;;;1.47;1.33;;;;;;;12.18;74.51;93031.69;5012826;28;20243;-75
2023/03/11 05:22:09;;;;;;;1.80;1.40;;;;;;;12.17;74.07;93036.19;4995412;28;20227;-75
2023/03/11 05:24:35;;;;;;;2.17;1.30;;;;;;;11.99;73.35;93037.50;5011506;28;20474;-75
2023/03/11 05:27:01;;;;;;;2.60;1.60;;;;;;;11.84;73.59;93034.06;5011637;28;20414;-75
2023/03/11 05:29:26;;;;;;;1.42;0.80;;;;;;;11.92;73.72;93063.34;5011961;28;21055;-74
2023/03/11 05:31:52;;;;;;;2.75;1.80;;;;;;;11.78;74.73;93058.84;5011673;28;20415;-75
2023/03/11 05:34:17;;;;;;;3.70;1.83;;;;;;;11.90;74.62;93057.53;5012411;28;20426;-75
2023/03/11 05:36:44;;;;;;;2.10;1.60;;;;;;;11.95;74.66;93052.25;5011153;28;20422;-75
2023/03/11 05:39:09;;;;;;;2.97;2.20;;;;;;;12.01;75.43;93060.97;5011434;28;20920;-75
2023/03/11 05:41:35;;;;;;;2.35;1.60;;;;;;;12.08;74.99;93058.84;5012210;28;20422;-75
2023/03/11 05:44:02;;;;;;;1.10;1.00;;;;;;;12.12;74.37;93056.47;5012406;28;20442;-75
2023/03/11 05:46:27;;;;;;;1.92;1.33;;;;;;;12.14;73.96;93057.78;5011091;28;20464;-75
2023/03/11 05:48:53;;;;;;;1.52;1.20;;;;;;;12.20;74.07;93069.91;5011423;28;20415;-75
2023/03/11 05:51:18;;;;;;;2.00;1.23;;;;;;;12.24;74.31;93071.00;5011630;28;20512;-75
2023/03/11 05:53:47;;;;;;;1.60;1.27;;;;;;;12.31;74.54;93082.06;5012313;28;20555;-75
2023/03/11 05:56:14;;;;;;;3.47;1.60;;;;;;;12.31;75.70;93083.91;5011648;28;20711;-76
2023/03/11 05:58:40;;;;;;;3.00;1.80;;;;;;;12.18;75.24;93063.34;5012516;28;20652;-76
2023/03/11 06:01:10;;;;;;;1.97;1.50;;;;;;;12.35;75.54;93098.97;5012622;28;20169;-76
2023/03/11 06:03:36;;;;;;;3.10;2.00;;;;;;;12.29;76.24;93084.16;5011947;28;20811;-76
2023/03/11 06:06:04;;;;;;;4.57;2.60;;;;;;;12.27;76.09;93099.50;5012731;28;20172;-76
2023/03/11 06:08:29;;;;;;;7.17;3.60;;;;;;;12.23;76.55;93094.97;5012123;28;20191;-76
2023/03/11 06:11:03;;;;;;;5.33;2.77;;;;;;;12.12;76.69;93088.91;5012612;28;20184;-76
2023/03/11 06:13:29;;;;;;;7.28;3.60;;;;;;;12.11;77.15;93111.06;5011732;28;20414;-76
2023/03/11 06:15:54;;;;;;;7.80;5.03;;;;;;;12.11;77.89;93105.03;5012475;28;20180;-76
2023/03/11 06:18:20;;;;;;;5.37;3.30;;;;;;;12.19;77.80;93105.28;5012787;28;20184;-76
2023/03/11 06:20:45;;;;;;;6.63;4.03;;;;;;;12.17;78.46;93107.41;5012051;28;20188;-76
2023/03/11 06:23:11;;;;;;;4.90;3.67;;;;;;;12.16;78.89;93110.28;5012039;28;20227;-75
2023/03/11 06:25:36;;;;;;;8.83;4.67;;;;;;;12.16;78.93;93107.66;5012113;28;20188;-75
2023/03/11 06:28:02;;;;;;;7.93;4.47;;;;;;;12.17;79.56;93106.59;5012454;28;20176;-75
2023/03/11 06:30:27;;;;;;;9.73;4.00;;;;;;;11.99;79.95;93092.09;5011976;28;20177;-75
2023/03/11 06:32:53;;;;;;;11.70;5.13;;;;;;;12.12;80.47;93103.94;5011803;28;20185;-75
2023/03/11 06:35:20;;;;;;;7.20;4.10;;;;;;;12.07;80.65;93102.09;5009082;28;20184;-75
2023/03/11 06:37:45;;;;;;;9.20;4.57;;;;;;;11.98;81.32;93099.19;5011901;28;20315;-75
2023/03/11 06:40:11;;;;;;;6.83;3.87;;;;;;;11.98;81.99;93103.69;5011876;28;20259;-76
2023/03/11 06:42:36;;;;;;;5.53;3.43;;;;;;;11.97;81.93;93110.78;5011957;28;20175;-75
2023/03/11 06:45:02;;;;;;;6.20;3.30;;;;;;;12.01;81.29;93114.50;5012024;28;20266;-75
2023/03/11 06:47:27;;;;;;;8.00;3.30;;;;;;;11.94;81.24;93095.50;5012366;28;20794;-76
2023/03/11 06:49:53;;;;;;;4.97;3.20;;;;;;;12.05;80.54;93106.84;5017030;28;21177;-75
2023/03/11 06:52:19;;;;;;;6.60;3.17;;;;;;;12.06;79.84;93111.88;5016537;28;20176;-75
2023/03/11 06:54:44;;;;;;;5.90;3.57;;;;;;;12.06;79.94;93111.06;5011065;28;20369;-74
2023/03/11 06:57:10;;;;;;;6.03;4.73;;;;;;;12.06;80.13;93108.44;5011562;28;20176;-76
2023/03/11 06:59:35;;;;;;;7.40;4.57;;;;;;;12.12;79.91;93120.56;5011924;28;20683;-76
2023/03/11 07:02:04;;;;;;;6.33;3.80;;;;;;;12.16;79.67;93121.63;5010743;28;20564;-75
2023/03/11 07:04:31;;;;;;;3.97;2.83;;;;;;;12.19;78.97;93117.69;5008379;28;20280;-75
2023/03/11 07:06:56;;;;;;;6.87;3.23;;;;;;;12.14;79.26;93109.75;5010396;28;20575;-75
2023/03/11 07:09:24;;;;;;;6.50;4.77;;;;;;;12.08;79.30;93104.50;5010465;28;20184;-75
2023/03/11 07:11:50;;;;;;;11.20;6.80;;;;;;;12.11;79.77;93113.69;5010785;28;20180;-75
2023/03/11 07:14:16;;;;;;;5.03;3.80;;;;;;;12.04;79.37;93086.81;5011123;28;20184;-75
2023/03/11 07:16:42;;;;;;;6.03;3.87;;;;;;;12.12;79.01;93103.94;5011185;28;20172;-75
2023/03/11 07:19:08;;;;;;;9.77;4.40;;;;;;;12.20;79.26;93101.56;5011411;28;20271;-75
2023/03/11 07:21:34;;;;;;;6.43;4.33;;;;;;;12.30;79.99;93109.50;5010962;28;20187;-75
2023/03/11 07:24:01;;;;;;;9.17;5.00;;;;;;;12.46;79.38;93108.44;5011465;28;20201;-75
2023/03/11 07:26:28;;;;;;;5.70;3.70;;;;;;;12.52;78.71;93103.16;5011022;28;20212;-76
2023/03/11 07:28:55;;;;;;;6.07;4.30;;;;;;;12.59;77.97;93115.03;5011295;28;20233;-76
2023/03/11 07:31:24;;;;;;;11.00;5.53;;;;;;;12.60;77.35;93110.53;5011346;28;20179;-75
2023/03/11 07:33:50;;;;;;;10.27;5.93;;;;;;;12.79;77.28;93107.09;5010802;28;20184;-75
2023/03/11 07:36:18;;;;;;;13.13;7.00;;;;;;;13.05;77.36;93093.81;5011009;28;20188;-77
2023/03/11 07:38:44;;;;;;;11.67;5.60;;;;;;;13.62;77.15;93072.19;5010872;28;20176;-75
2023/03/11 07:41:11;;;;;;;7.27;4.87;;;;;;;14.89;73.89;93092.38;5011011;28;20168;-75
2023/03/11 07:43:38;;;;;;;8.70;6.43;;;;;;;15.72;69.16;93071.53;5008514;28;20200;-75
2023/03/11 07:46:04;;;;;;;6.77;4.00;;;;;;;16.29;65.03;93080.25;5010632;28;20196;-75
2023/03/11 07:48:30;;;;;;;5.07;4.00;;;;;;;16.80;63.64;93084.75;5010953;28;20259;-75
2023/03/11 07:51:03;;;;;;;5.63;3.70;;;;;;;17.34;61.86;93081.38;5010715;28;20259;-76
2023/03/11 07:53:29;;;;;;;9.65;6.43;;;;;;;18.02;60.60;93078.63;5010662;28;20183;-75
2023/03/11 07:55:56;;;;;;;3.33;1.83;;;;;;;18.64;58.49;93075.38;5010912;28;20176;-75
2023/03/11 07:58:21;;;;;;;2.28;1.85;;;;;;;19.10;56.09;93067.00;5009799;28;20190;-77
2023/03/11 08:00:46;;;;;;;1.40;1.23;;;;;;;19.40;53.14;93049.34;5011231;28;20256;-77
2023/03/11 08:03:12;;;;;;;2.22;1.52;;;;;;;19.34;52.04;93047.94;5010338;28;20640;-75
2023/03/11 08:05:38;;;;;;;11.38;2.88;;;;;;;19.47;52.69;93047.00;5010197;28;20183;-75
2023/03/11 08:08:03;;;;;;;3.63;2.10;;;;;;;19.57;51.67;93036.88;5010807;28;20187;-76
2023/03/11 08:10:28;;;;;;;2.55;2.20;;;;;;;19.68;53.16;93028.56;5010687;28;20223;-76
2023/03/11 08:12:54;;;;;;;3.63;1.60;;;;;;;19.92;50.23;93012.88;5010712;28;20187;-76
2023/03/11 08:15:19;;;;;;;2.35;1.73;;;;;;;20.04;49.35;93025.63;5010488;28;20199;-77
2023/03/11 08:17:45;;;;;;;3.85;2.22;;;;;;;19.54;51.11;93016.16;5010764;28;20188;-76
2023/03/11 08:20:10;;;;;;;2.22;1.70;;;;;;;19.66;51.72;93004.84;5005504;28;20651;-77
2023/03/11 08:22:36;;;;;;;3.35;2.28;;;;;;;19.90;50.47;93009.72;5013927;28;20223;-77
2023/03/11 08:25:02;;;;;;;3.17;2.28;;;;;;;20.07;48.96;93009.72;5014465;28;20691;-76
2023/03/11 08:27:28;;;;;;;3.95;2.50;;;;;;;19.55;48.99;92987.56;5014508;28;20180;-76
2023/03/11 08:29:53;;;;;;;4.38;2.50;;;;;;;19.09;51.10;92948.84;5014760;28;20180;-77
2023/03/11 08:32:19;;;;;;;1.75;1.40;;;;;;;19.56;50.96;92978.44;5014120;28;20173;-77
2023/03/11 08:34:44;;;;;;;4.13;2.13;;;;;;;19.86;49.76;92988.22;5014353;28;20318;-77
2023/03/11 08:37:10;;;;;;;2.97;2.20;;;;;;;20.24;50.69;92984.88;5014440;28;20557;-77
2023/03/11 08:39:35;;;;;;;4.63;2.38;;;;;;;20.37;48.83;92959.13;5015176;28;20184;-78
2023/03/11 08:42:01;;;;;;;6.28;2.38;;;;;;;20.92;48.57;92989.34;5009393;28;20192;-78
2023/03/11 08:44:27;;;;;;;6.18;2.30;;;;;;;21.20;47.71;92983.56;5009400;28;20237;-77
2023/03/11 08:46:53;;;;;;;2.33;1.40;;;;;;;21.30;45.62;92983.97;5015647;28;20611;-77
2023/03/11 08:49:18;;;;;;;3.40;2.10;;;;;;;21.42;45.85;92972.59;5010877;28;20572;-77
2023/03/11 08:51:44;;;;;;;2.15;1.58;;;;;;;21.43;46.63;92958.09;5014496;28;20176;-78
2023/03/11 08:54:10;;;;;;;2.60;1.90;;;;;;;21.84;46.33;92981.44;5011887;28;20180;-76
2023/03/11 08:56:35;;;;;;;3.35;2.22;;;;;;;21.48;43.98;92973.97;5012675;28;20188;-76
2023/03/11 08:59:01;;;;;;;3.03;1.88;;;;;;;20.83;45.13;92975.22;5007582;28;20176;-77
2023/03/11 09:01:28;;;;;;;1.88;1.48;;;;;;;21.01;46.43;92974.03;5012095;28;20669;-76
2023/03/11 09:03:53;;;;;;;1.83;1.65;;;;;;;20.79;46.42;92949.41;5010167;28;20338;-77
2023/03/11 09:06:19;;;;;;;5.85;2.10;;;;;;;20.93;46.80;92972.16;5013398;28;20256;-78
2023/03/11 09:08:46;;;;;;;4.40;1.98;;;;;;;20.43;45.45;92950.63;5010204;28;20207;-76
2023/03/11 09:11:12;;;;;;;3.50;1.70;;;;;;;20.60;45.86;92974.63;5011276;28;20188;-79
2023/03/11 09:13:39;;;;;;;3.53;1.55;;;;;;;20.09;47.68;92964.78;5013386;28;20179;-77
2023/03/11 09:16:13;;;;;;;1.73;1.35;;;;;;;19.68;47.38;92961.81;5012713;28;20180;-77
2023/03/11 09:18:38;;;;;;;2.67;1.60;;;;;;;19.56;48.02;92965.91;5009290;28;20248;-77
2023/03/11 09:21:04;;;;;;;2.28;1.73;;;;;;;19.80;49.66;92960.13;5013916;28;20189;-76
2023/03/11 09:23:29;;;;;;;1.73;1.40;;;;;;;19.79;48.06;92957.75;5013149;28;20360;-76
2023/03/11 09:25:54;;;;;;;1.33;1.23;;;;;;;19.70;47.95;92946.28;5013664;28;20257;-76
2023/03/11 09:28:20;;;;;;;4.47;1.55;;;;;;;19.39;47.81;92927.69;5012454;28;20180;-77
2023/03/11 09:30:45;;;;;;;3.28;1.52;;;;;;;19.29;49.61;92941.34;5010975;28;20255;-77
2023/03/11 09:33:11;;;;;;;2.00;1.30;;;;;;;19.36;48.59;92945.13;5010106;28;20176;-77
2023/03/11 09:35:39;;;;;;;3.05;1.30;;;;;;;19.38;50.08;92944.81;5010766;28;20212;-77
2023/03/11 09:38:04;;;;;;;2.50;1.63;;;;;;;19.48;49.99;92912.50;5008772;28;20172;-78
2023/03/11 09:41:05;;;;;;;2.33;1.52;;;;;;;19.57;49.60;92926.63;5005270;28;20178;-77
2023/03/11 09:43:34;;;;;;;2.92;1.63;;;;;;;19.59;48.08;92945.81;4981862;28;20602;-77
2023/03/11 09:46:42;;;;;;;3.40;2.15;;;;;;;19.71;50.02;92908.59;5012108;28;20172;-77
2023/03/11 09:49:19;;;;;;;3.05;1.30;;;;;;;19.97;49.47;92935.28;4981694;28;20196;-77
2023/03/11 09:52:12;;;;;;;3.15;1.20;;;;;;;20.19;49.67;92928.94;5014249;28;20207;-78
2023/03/11 09:54:41;;;;;;;4.70;1.60;;;;;;;20.31;48.81;92937.13;5006372;28;20192;-77
2023/03/11 09:57:14;;;;;;;2.08;1.40;;;;;;;20.31;45.27;92918.41;5005839;28;20197;-77
2023/03/11 09:59:42;;;;;;;1.92;1.40;;;;;;;20.17;46.01;92923.91;5016287;28;20174;-77
2023/03/11 10:02:14;;;;;;;2.47;1.40;;;;;;;19.80;46.94;92922.72;5012457;28;20180;-77
2023/03/11 10:04:53;;;;;;;4.63;2.25;;;;;;;19.52;45.71;92934.81;5010835;28;20570;-77
2023/03/11 10:07:24;;;;;;;1.77;1.30;;;;;;;19.43;47.07;92926.00;5008153;28;20314;-77
2023/03/11 10:09:51;;;;;;;2.65;1.63;;;;;;;19.42;47.02;92935.09;5012477;28;20198;-77
2023/03/11 10:12:35;;;;;;;3.03;1.50;;;;;;;19.17;46.79;92942.75;5016981;28;20699;-77
2023/03/11 10:15:06;;;;;;;3.58;1.95;;;;;;;18.69;47.81;92947.28;5013437;28;20175;-77
2023/03/11 10:17:44;;;;;;;4.47;2.35;;;;;;;18.38;48.43;92944.63;5012136;28;20259;-77
2023/03/11 10:20:26;;;;;;;2.92;1.38;;;;;;;18.23;49.42;92948.47;5013838;28;20264;-77
2023/03/11 10:23:20;;;;;;;3.67;1.80;;;;;;;17.92;50.03;92948.41;5013730;28;20247;-77
2023/03/11 10:26:04;;;;;;;4.30;1.73;;;;;;;17.81;52.25;92946.31;5012670;28;20246;-77
2023/03/11 10:28:36;;;;;;;4.63;1.90;;;;;;;17.77;51.14;92951.44;5007030;28;20215;-77
2023/03/11 10:31:43;;;;;;;4.28;2.30;;;;;;;17.85;51.70;92948.03;5009339;28;20200;-77
2023/03/11 10:34:26;;;;;;;2.85;1.80;;;;;;;17.76;51.36;92933.88;4937606;29;20811;-77
2023/03/11 10:37:18;;;;;;;4.90;2.15;;;;;;;17.69;49.99;92944.97;4939999;29;20197;-76
2023/03/11 10:39:47;;;;;;;5.53;1.92;;;;;;;17.57;50.53;92946.53;4989172;28;20189;-81
2023/03/11 10:42:16;;;;;;;3.63;2.10;;;;;;;17.37;51.63;92945.13;5012263;28;20196;-78
2023/03/11 10:44:42;;;;;;;4.00;2.45;;;;;;;17.17;52.48;92940.25;5012024;28;20192;-77
2023/03/11 10:47:22;;;;;;;6.00;2.38;;;;;;;16.90;52.02;92944.50;5012291;28;20184;-77
2023/03/11 10:49:48;;;;;;;5.70;3.17;;;;;;;16.39;53.57;92954.50;5012031;28;20172;-77
2023/03/11 10:52:14;;;;;;;3.95;1.40;;;;;;;16.08;55.37;92957.69;5012211;28;20670;-78
2023/03/11 10:54:46;;;;;;;2.58;1.80;;;;;;;15.85;56.69;92940.81;5012083;28;20177;-77
2023/03/11 10:57:34;;;;;;;3.30;2.15;;;;;;;16.01;57.85;92959.91;5011501;28;20172;-78
2023/03/11 11:00:08;;;;;;;3.50;1.70;;;;;;;15.98;55.87;92941.16;5011506;28;20204;-78
2023/03/11 11:02:39;;;;;;;5.13;2.30;;;;;;;16.14;55.75;92963.69;5007242;28;20311;-78
2023/03/11 11:05:16;;;;;;;3.35;2.10;;;;;;;16.25;55.89;92957.16;5006120;28;20226;-77
2023/03/11 11:07:46;;;;;;;3.20;2.47;;;;;;;16.39;56.82;92955.28;5007406;28;20680;-77
2023/03/11 11:10:14;;;;;;;4.35;2.30;;;;;;;16.65;56.75;92952.97;5009399;28;20214;-77
2023/03/11 11:13:12;;;;;;;2.00;1.20;;;;;;;16.83;55.29;92949.44;5010569;28;20643;-77
2023/03/11 11:16:02;;;;;;;3.97;2.25;;;;;;;16.95;56.28;92944.38;5006095;28;20631;-77
2023/03/11 11:18:33;;;;;;;2.50;1.80;;;;;;;17.10;54.81;92942.53;5000644;28;20200;-77
2023/03/11 11:21:30;;;;;;;2.30;1.58;;;;;;;17.16;55.25;92931.47;5009983;28;20195;-77
2023/03/11 11:24:16;;;;;;;3.38;1.70;;;;;;;17.10;54.69;92926.56;5003188;28;20220;-77
2023/03/11 11:27:01;;;;;;;8.75;1.52;;;;;;;16.93;54.48;92920.00;5011389;28;20583;-77
2023/03/11 11:29:26;;;;;;;3.80;2.10;;;;;;;16.90;54.51;92909.16;5011397;28;20628;-77
2023/03/11 11:32:08;;;;;;;4.03;2.40;;;;;;;16.84;52.68;92905.06;5011719;28;20267;-77
2023/03/11 11:34:34;;;;;;;6.03;2.72;;;;;;;16.63;52.05;92903.88;5010546;28;20173;-77
2023/03/11 11:37:04;;;;;;;3.85;2.15;;;;;;;16.35;52.59;92908.34;5011109;28;20176;-77
2023/03/11 11:39:50;;;;;;;3.72;2.78;;;;;;;16.19;54.36;92895.38;5011492;28;20639;-78